Time;durP1;ratioP1;P1;durP2;ratioP2;P2;SDS_P1;SDS_P2;PMS_P1;PMS_P2;Temp;Humidity;BMP_temperature;BMP_pressure;BME280_temperature;BME280_humidity;BME280_pressure;Samples;Min_cycle;Max_cycle;Signal;HPM_P1;HPM_P2
2023/07/27 00:00:37;;;;;;;12.90;7.28;;;;;;;-146.25;100.00;52203.97;2089121;28;26277;-69
2023/07/27 00:01:42;;;;;;;9.85;6.82;;;;;;;-146.25;100.00;52212.06;2088950;28;20053;-69
2023/07/27 00:02:44;;;;;;;9.38;6.70;;;;;;;-146.25;100.00;52159.34;2089041;28;20327;-69
2023/07/27 00:03:46;;;;;;;10.88;7.30;;;;;;;-146.25;100.00;52179.63;2088303;28;39113;-69
2023/07/27 00:04:47;;;;;;;9.38;7.13;;;;;;;-146.25;100.00;52193.81;2088439;28;40098;-69
2023/07/27 00:05:49;;;;;;;12.73;6.70;;;;;;;-146.25;100.00;52210.03;2088635;28;31799;-70
2023/07/27 00:06:53;;;;;;;11.60;7.15;;;;;;;-146.25;100.00;52171.53;2088772;28;36839;-68
2023/07/27 00:07:55;;;;;;;11.88;7.03;;;;;;;-146.25;100.00;52155.31;2088411;28;20183;-67
2023/07/27 00:08:57;;;;;;;11.68;7.78;;;;;;;-146.25;100.00;52201.94;2087980;28;32506;-68
2023/07/27 00:09:59;;;;;;;12.57;7.85;;;;;;;-146.25;100.00;52193.81;2087873;28;37170;-67
2023/07/27 00:11:00;;;;;;;15.85;8.15;;;;;;;-146.25;100.00;52177.59;2089154;28;20042;-68
2023/07/27 00:12:02;;;;;;;14.35;7.32;;;;;;;-146.25;100.00;52181.66;2088585;28;33112;-68
2023/07/27 00:13:04;;;;;;;11.63;6.47;;;;;;;-146.25;100.00;52212.06;2091721;28;35716;-68
2023/07/27 00:14:06;;;;;;;12.02;7.63;;;;;;;-146.25;100.00;52173.56;2088794;28;30772;-68
2023/07/27 00:15:08;;;;;;;10.52;6.78;;;;;;;-146.25;100.00;52199.91;2088375;28;37112;-68
2023/07/27 00:16:10;;;;;;;11.07;6.32;;;;;;;-146.25;100.00;52185.72;2088929;28;20037;-69
2023/07/27 00:17:12;;;;;;;11.85;7.05;;;;;;;-146.25;100.00;52189.78;2088580;28;37087;-67
2023/07/27 00:18:14;;;;;;;9.52;6.72;;;;;;;-146.25;100.00;52185.72;2088286;28;37986;-67
2023/07/27 00:19:16;;;;;;;12.73;6.50;;;;;;;-146.25;100.00;52163.41;2088572;28;33592;-67
2023/07/27 00:20:18;;;;;;;12.32;7.13;;;;;;;-146.25;100.00;52179.63;2088580;28;34933;-68
2023/07/27 00:21:21;;;;;;;13.43;7.70;;;;;;;-146.25;100.00;52206.00;2089189;28;20068;-68
2023/07/27 00:22:22;;;;;;;10.27;7.35;;;;;;;-146.25;100.00;52163.41;2087699;28;33851;-68
2023/07/27 00:23:27;;;;;;;13.05;7.85;;;;;;;-146.25;100.00;52177.59;2088364;28;34816;-68
2023/07/27 00:24:28;;;;;;;12.00;7.65;;;;;;;-146.25;100.00;52212.06;2088464;28;32179;-68
2023/07/27 00:25:30;;;;;;;14.85;7.65;;;;;;;-146.25;100.00;52206.00;2087651;28;35947;-67
2023/07/27 00:26:32;;;;;;;12.00;7.53;;;;;;;-146.25;100.00;52161.38;2089174;28;20042;-69
2023/07/27 00:27:34;;;;;;;14.90;8.27;;;;;;;-146.25;100.00;52212.06;2088658;28;30674;-68
2023/07/27 00:28:36;;;;;;;16.98;9.07;;;;;;;-146.25;100.00;52191.81;2088746;28;28945;-68
2023/07/27 00:29:38;;;;;;;14.38;7.70;;;;;;;-146.25;100.00;52201.94;2088848;28;30149;-68
2023/07/27 00:30:39;;;;;;;10.90;7.43;;;;;;;-146.25;100.00;52163.41;2088869;28;20048;-68
2023/07/27 00:31:41;;;;;;;12.20;7.20;;;;;;;-146.25;100.00;52222.22;2088416;28;37057;-69
2023/07/27 00:32:45;;;;;;;11.27;6.90;;;;;;;-146.25;100.00;52181.66;2087841;28;20045;-68
2023/07/27 00:33:47;;;;;;;13.82;7.78;;;;;;;-146.25;100.00;52210.03;2088178;28;26869;-69
2023/07/27 00:34:51;;;;;;;12.13;7.82;;;;;;;-146.25;100.00;52181.66;2088397;28;32259;-68
2023/07/27 00:35:58;;;;;;;13.13;8.63;;;;;;;-146.25;100.00;52173.56;2089117;28;20085;-68
2023/07/27 00:37:01;;;;;;;12.52;7.85;;;;;;;-146.25;100.00;52181.66;2088791;28;20156;-69
2023/07/27 00:38:06;;;;;;;11.88;8.18;;;;;;;-146.25;100.00;52175.56;2096508;28;20045;-67
2023/07/27 00:39:07;;;;;;;16.00;8.52;;;;;;;-146.25;100.00;52220.19;2087721;28;35182;-69
2023/07/27 00:40:10;;;;;;;13.82;8.50;;;;;;;-146.25;100.00;52185.72;2088382;28;20042;-68
2023/07/27 00:41:12;;;;;;;12.10;8.10;;;;;;;-146.25;100.00;52179.63;2095646;28;36486;-68
2023/07/27 00:42:13;;;;;;;14.27;8.45;;;;;;;-146.25;100.00;52191.81;2087705;28;26314;-68
2023/07/27 00:43:15;;;;;;;13.15;8.85;;;;;;;-146.25;100.00;52197.88;2088023;28;31309;-68
2023/07/27 00:44:17;;;;;;;12.55;8.02;;;;;;;-146.25;100.00;52161.38;2088478;28;20077;-69
2023/07/27 00:45:19;;;;;;;12.98;7.90;;;;;;;-146.25;100.00;52181.66;2087719;28;30308;-68
2023/07/27 00:46:22;;;;;;;12.82;7.97;;;;;;;-146.25;100.00;52161.38;2087005;28;27609;-68
2023/07/27 00:47:26;;;;;;;14.25;8.70;;;;;;;-146.25;100.00;52208.03;2088049;28;24973;-68
2023/07/27 00:48:28;;;;;;;11.73;8.85;;;;;;;-146.25;100.00;52189.78;2095889;28;24895;-69
2023/07/27 00:49:30;;;;;;;12.75;9.23;;;;;;;-146.25;100.00;52157.34;2096697;28;29572;-68
2023/07/27 00:50:35;;;;;;;14.52;9.65;;;;;;;-146.25;100.00;52214.09;2096527;28;20114;-68
2023/07/27 00:51:42;;;;;;;13.18;8.70;;;;;;;-146.25;100.00;52224.25;2088447;28;25652;-68
2023/07/27 00:52:44;;;;;;;12.95;8.20;;;;;;;-146.25;100.00;52181.66;2088086;28;20924;-68
2023/07/27 00:53:46;;;;;;;15.23;8.63;;;;;;;-146.25;100.00;52254.66;2087905;28;34480;-69
2023/07/27 00:54:51;;;;;;;18.38;9.73;;;;;;;-146.25;100.00;52212.06;2095908;28;29132;-68
2023/07/27 00:55:53;;;;;;;17.67;10.63;;;;;;;-146.25;100.00;52175.56;2087309;28;32614;-68
2023/07/27 00:56:55;;;;;;;16.23;9.85;;;;;;;-146.25;100.00;52181.66;2087479;28;30509;-68
2023/07/27 00:57:59;;;;;;;12.63;9.05;;;;;;;-146.25;100.00;52157.34;2096546;28;20454;-69
2023/07/27 00:59:05;;;;;;;13.50;9.07;;;;;;;-146.25;100.00;52159.34;2088004;28;29621;-69
2023/07/27 01:00:08;;;;;;;12.00;8.57;;;;;;;-146.25;100.00;52210.03;2088061;28;26611;-69
2023/07/27 01:01:13;;;;;;;12.30;9.13;;;;;;;-146.25;100.00;52220.19;2089423;28;20975;-68
2023/07/27 01:02:16;;;;;;;13.75;8.57;;;;;;;-146.25;100.00;52201.94;2087965;28;20075;-68
2023/07/27 01:03:20;;;;;;;13.48;9.00;;;;;;;-146.25;100.00;52185.72;2088719;28;26600;-69
2023/07/27 01:04:22;;;;;;;11.05;7.68;;;;;;;-146.25;100.00;52206.00;2095913;28;20037;-68
2023/07/27 01:05:24;;;;;;;12.38;7.90;;;;;;;-146.25;100.00;52141.13;2088166;28;29441;-69
2023/07/27 01:06:27;;;;;;;11.45;7.70;;;;;;;-146.25;100.00;52151.25;2095117;28;24153;-68
2023/07/27 01:07:29;;;;;;;14.90;9.40;;;;;;;-146.25;100.00;52130.97;2088157;28;20041;-69
2023/07/27 01:08:31;;;;;;;15.13;9.23;;;;;;;-146.25;100.00;52210.03;2087183;28;30319;-68
2023/07/27 01:09:35;;;;;;;13.95;9.27;;;;;;;-146.25;100.00;52179.63;2088977;28;20120;-68
2023/07/27 01:10:57;;;;;;;14.82;9.73;;;;;;;-146.25;100.00;52177.59;2087921;28;20053;-68
2023/07/27 01:12:28;;;;;;;18.75;9.70;;;;;;;-146.25;100.00;52199.91;2074319;28;20156;-69
2023/07/27 01:14:02;;;;;;;12.60;7.90;;;;;;;-146.25;100.00;52199.91;2090664;28;31379;-69
2023/07/27 01:15:16;;;;;;;14.10;8.07;;;;;;;-146.25;100.00;52179.63;2090762;28;20912;-69
2023/07/27 01:16:28;;;;;;;14.95;9.10;;;;;;;-146.25;100.00;52191.81;2088179;28;20987;-69
2023/07/27 01:17:53;;;;;;;15.88;9.20;;;;;;;-146.25;100.00;52210.03;2081961;28;20954;-69
2023/07/27 01:19:26;;;;;;;13.27;9.05;;;;;;;-146.25;100.00;52195.84;2090496;28;32992;-69
2023/07/27 01:20:42;;;;;;;14.85;8.93;;;;;;;-146.25;100.00;52167.47;2096161;28;28180;-69
2023/07/27 01:21:51;;;;;;;21.33;11.20;;;;;;;-146.25;100.00;52244.50;2096063;28;30257;-69
2023/07/27 01:23:41;;;;;;;13.85;9.40;;;;;;;-146.25;100.00;52210.03;2095980;28;28204;-68
2023/07/27 01:24:55;;;;;;;15.13;9.30;;;;;;;-146.25;100.00;52197.88;2079412;28;21717;-68
2023/07/27 01:26:22;;;;;;;15.82;8.90;;;;;;;-146.25;100.00;52167.47;2085994;28;23706;-67
2023/07/27 01:28:11;;;;;;;15.68;9.68;;;;;;;-146.25;100.00;52189.78;2088330;28;28787;-68
2023/07/27 01:29:40;;;;;;;14.40;9.15;;;;;;;-146.25;100.00;52203.97;2079327;28;31863;-68
2023/07/27 01:30:58;;;;;;;15.27;9.25;;;;;;;-146.25;100.00;52199.91;2079322;28;25746;-69
2023/07/27 01:32:00;;;;;;;14.02;8.32;;;;;;;-146.25;100.00;52165.44;2085728;28;29373;-68
2023/07/27 01:33:10;;;;;;;17.92;10.13;;;;;;;-146.25;100.00;52175.56;2087434;28;30535;-67
2023/07/27 01:34:22;;;;;;;14.13;9.05;;;;;;;-146.25;100.00;52201.94;2089287;28;29834;-68
2023/07/27 01:35:40;;;;;;;16.75;9.88;;;;;;;-146.25;100.00;52246.53;2079136;28;25851;-69
2023/07/27 01:36:46;;;;;;;15.77;9.13;;;;;;;-146.25;100.00;52173.56;2083093;28;30182;-67
2023/07/27 01:37:51;;;;;;;16.05;9.73;;;;;;;-146.25;100.00;52185.72;2082602;28;20851;-68
2023/07/27 01:38:58;;;;;;;16.23;10.25;;;;;;;-146.25;100.00;52197.88;2087773;28;27617;-69
2023/07/27 01:40:02;;;;;;;17.10;9.82;;;;;;;-146.25;100.00;52181.66;2087345;28;35423;-68
2023/07/27 01:41:07;;;;;;;15.13;9.75;;;;;;;-146.25;100.00;52189.78;2071457;28;23987;-68
2023/07/27 01:42:13;;;;;;;15.70;10.05;;;;;;;-146.25;100.00;52179.63;2071985;28;30194;-68
2023/07/27 01:43:16;;;;;;;13.68;9.43;;;;;;;-146.25;100.00;52197.88;2089345;28;20215;-68
2023/07/27 01:44:18;;;;;;;16.30;10.07;;;;;;;-146.25;100.00;52165.44;2087688;28;25541;-69
2023/07/27 01:45:22;;;;;;;14.77;10.10;;;;;;;-146.25;100.00;52199.91;2079722;28;21944;-68
2023/07/27 01:46:26;;;;;;;11.98;8.93;;;;;;;-146.25;100.00;52187.75;2087740;28;21034;-68
2023/07/27 01:47:29;;;;;;;14.23;8.98;;;;;;;-146.25;100.00;52230.31;2095667;28;25612;-68
2023/07/27 01:48:39;;;;;;;14.85;9.25;;;;;;;-146.25;100.00;52195.84;2088198;28;30821;-68
2023/07/27 01:49:43;;;;;;;;;;;;;;;-146.25;100.00;52222.22;2079732;28;30232;-68
2023/07/27 01:50:46;;;;;;;18.90;10.40;;;;;;;-146.25;100.00;52185.72;2081395;28;27178;-68
2023/07/27 01:51:49;;;;;;;17.50;9.90;;;;;;;-146.25;100.00;52151.25;2096117;28;20025;-68
2023/07/27 01:52:52;;;;;;;19.52;11.00;;;;;;;-146.25;100.00;52191.81;2087607;28;30572;-68
2023/07/27 01:53:55;;;;;;;14.50;10.32;;;;;;;-146.25;100.00;52175.56;2096048;28;29595;-68
2023/07/27 01:55:02;;;;;;;15.52;10.93;;;;;;;-146.25;100.00;52177.59;2087980;28;20132;-69
2023/07/27 01:56:08;;;;;;;13.02;9.15;;;;;;;-146.25;100.00;52189.78;2080360;28;20042;-68
2023/07/27 01:57:11;;;;;;;18.27;10.23;;;;;;;-146.25;100.00;52177.59;2080075;28;20144;-69
2023/07/27 01:58:20;;;;;;;14.15;9.45;;;;;;;-146.25;100.00;52173.56;2087684;28;20037;-69
2023/07/27 01:59:24;;;;;;;15.70;10.73;;;;;;;-146.25;100.00;52185.72;2089069;28;20085;-69
2023/07/27 02:00:28;;;;;;;16.05;10.77;;;;;;;-146.25;100.00;52201.94;2084281;28;20064;-68
2023/07/27 02:01:30;;;;;;;17.17;10.48;;;;;;;-146.25;100.00;52183.69;2087468;28;20050;-67
2023/07/27 02:02:33;;;;;;;13.93;9.85;;;;;;;-146.25;100.00;52193.81;2087670;28;24520;-69
2023/07/27 02:03:36;;;;;;;15.15;9.90;;;;;;;-146.25;100.00;52220.19;2079805;28;20096;-68
2023/07/27 02:04:38;;;;;;;15.20;10.30;;;;;;;-146.25;100.00;52155.31;2071705;28;24254;-68
2023/07/27 02:05:41;;;;;;;17.45;10.35;;;;;;;-146.25;100.00;52171.53;2079839;28;20148;-69
2023/07/27 02:06:51;;;;;;;15.63;10.18;;;;;;;-146.25;100.00;52238.44;2087935;28;20926;-69
2023/07/27 02:07:53;;;;;;;17.42;10.65;;;;;;;-146.25;100.00;52206.00;2087665;28;25619;-68
2023/07/27 02:08:54;;;;;;;15.68;10.85;;;;;;;-146.25;100.00;52181.66;2079314;28;20026;-68
2023/07/27 02:09:59;;;;;;;14.18;9.70;;;;;;;-146.25;100.00;52189.78;2079691;28;20057;-68
2023/07/27 02:11:07;;;;;;;17.25;10.38;;;;;;;-146.25;100.00;52175.56;2087137;28;20137;-69
2023/07/27 02:12:18;;;;;;;15.13;10.38;;;;;;;-146.25;100.00;52206.00;2087960;28;30007;-68
2023/07/27 02:13:45;;;;;;;14.85;10.05;;;;;;;-146.25;100.00;52169.50;2087398;28;21016;-68
2023/07/27 02:15:01;;;;;;;16.33;9.13;;;;;;;-146.25;100.00;52206.00;2082722;28;20080;-69
2023/07/27 02:16:53;;;;;;;16.50;9.90;;;;;;;-146.25;100.00;52183.69;2087542;28;20042;-69
2023/07/27 02:18:10;;;;;;;16.10;9.50;;;;;;;-146.25;100.00;52238.44;2061549;28;20106;-68
2023/07/27 02:19:18;;;;;;;17.42;9.75;;;;;;;-146.25;100.00;52197.88;2081767;28;20038;-68
2023/07/27 02:20:22;;;;;;;14.90;9.88;;;;;;;-146.25;100.00;52197.88;2081739;28;20827;-68
2023/07/27 02:21:27;;;;;;;15.35;9.98;;;;;;;-146.25;100.00;52185.72;2088326;28;20026;-69
2023/07/27 02:22:30;;;;;;;13.88;8.68;;;;;;;-146.25;100.00;52159.34;2087612;28;20616;-69
2023/07/27 02:23:32;;;;;;;17.05;10.15;;;;;;;-146.25;100.00;52203.97;2087623;28;25965;-69
2023/07/27 02:24:34;;;;;;;16.63;10.85;;;;;;;-146.25;100.00;52214.09;2095940;28;20041;-69
2023/07/27 02:25:39;;;;;;;15.05;9.23;;;;;;;-146.25;100.00;52210.03;2096355;28;20780;-68
2023/07/27 02:26:42;;;;;;;11.60;9.27;;;;;;;-146.25;100.00;52201.94;2087430;28;20045;-69
2023/07/27 02:27:44;;;;;;;16.60;10.40;;;;;;;-146.25;100.00;52189.78;2088180;28;20037;-69
2023/07/27 02:28:47;;;;;;;13.40;9.15;;;;;;;-146.25;100.00;52171.53;2096311;28;20045;-69
2023/07/27 02:29:52;;;;;;;15.85;9.40;;;;;;;-146.25;100.00;52208.03;2087446;28;20926;-69
2023/07/27 02:30:54;;;;;;;18.15;10.25;;;;;;;-146.25;100.00;52171.53;2087478;28;20045;-69
2023/07/27 02:31:56;;;;;;;13.45;9.93;;;;;;;-146.25;100.00;52206.00;2087389;28;20933;-69
2023/07/27 02:32:58;;;;;;;13.07;9.55;;;;;;;-146.25;100.00;52214.09;2087324;28;20164;-69
2023/07/27 02:34:00;;;;;;;11.77;8.38;;;;;;;-146.25;100.00;52212.06;2087305;28;20107;-69
2023/07/27 02:35:03;;;;;;;13.90;9.60;;;;;;;-146.25;100.00;52181.66;2087428;28;20896;-69
2023/07/27 02:36:05;;;;;;;12.93;9.13;;;;;;;-146.25;100.00;52206.00;2087304;28;20127;-69
2023/07/27 02:37:11;;;;;;;14.55;9.70;;;;;;;-146.25;100.00;52177.59;2087724;28;20193;-69
2023/07/27 02:38:15;;;;;;;14.85;9.70;;;;;;;-146.25;100.00;52224.25;2087187;28;32858;-69
2023/07/27 02:39:19;;;;;;;14.93;10.30;;;;;;;-146.25;100.00;52157.34;2079267;28;20042;-69
2023/07/27 02:40:24;;;;;;;15.25;10.38;;;;;;;-146.25;100.00;52197.88;2072849;28;20073;-69
2023/07/27 02:41:27;;;;;;;14.82;10.07;;;;;;;-146.25;100.00;52191.81;2080619;28;20037;-70
2023/07/27 02:42:30;;;;;;;19.58;11.05;;;;;;;-146.25;100.00;52143.13;2079158;28;20958;-69
2023/07/27 02:43:33;;;;;;;14.45;10.25;;;;;;;-146.25;100.00;52216.13;2071440;28;20046;-69
2023/07/27 02:44:35;;;;;;;14.25;9.40;;;;;;;-146.25;100.00;52199.91;2071490;28;20236;-69
2023/07/27 02:45:36;;;;;;;12.50;9.55;;;;;;;-146.25;100.00;52195.84;2079237;28;21001;-69
2023/07/27 02:46:38;;;;;;;15.07;10.00;;;;;;;-146.25;100.00;52159.34;2087520;28;20053;-69
2023/07/27 02:47:41;;;;;;;16.17;10.18;;;;;;;-146.25;100.00;52181.66;2079364;28;20038;-68
2023/07/27 02:48:43;;;;;;;14.73;10.23;;;;;;;-146.25;100.00;52210.03;2087619;28;20870;-69
2023/07/27 02:49:47;;;;;;;14.57;10.65;;;;;;;-146.25;100.00;52187.75;2087317;28;20792;-69
2023/07/27 02:50:50;;;;;;;15.85;10.48;;;;;;;-146.25;100.00;52187.75;2080099;28;20042;-69
2023/07/27 02:51:52;;;;;;;13.00;10.05;;;;;;;-146.25;100.00;52155.31;2071333;28;20124;-69
2023/07/27 02:52:56;;;;;;;16.52;10.93;;;;;;;-146.25;100.00;52193.81;2079580;28;20792;-69
2023/07/27 02:53:59;;;;;;;15.35;10.52;;;;;;;-146.25;100.00;52212.06;2095813;28;20057;-69
2023/07/27 02:55:05;;;;;;;15.68;11.23;;;;;;;-146.25;100.00;52230.31;2087512;28;20898;-70
2023/07/27 02:56:08;;;;;;;15.00;10.15;;;;;;;-146.25;100.00;52220.19;2087405;28;22539;-69
2023/07/27 02:57:21;;;;;;;17.17;10.25;;;;;;;-146.25;100.00;52199.91;2079318;28;20046;-70
2023/07/27 02:58:29;;;;;;;14.07;10.52;;;;;;;-146.25;100.00;52173.56;2075157;28;20054;-69
2023/07/27 02:59:31;;;;;;;13.88;10.30;;;;;;;-146.25;100.00;52224.25;2087891;28;20279;-69
2023/07/27 03:00:35;;;;;;;15.93;11.18;;;;;;;-146.25;100.00;52187.75;2087400;28;20114;-69
2023/07/27 03:01:38;;;;;;;14.48;10.57;;;;;;;-146.25;100.00;52236.41;2088363;28;20037;-69
2023/07/27 03:02:45;;;;;;;14.95;11.27;;;;;;;-146.25;100.00;52201.94;2086959;28;20862;-70
2023/07/27 03:03:49;;;;;;;14.35;11.68;;;;;;;-146.25;100.00;52220.19;2087944;28;20044;-71
2023/07/27 03:04:51;;;;;;;15.80;11.60;;;;;;;-146.25;100.00;52195.84;2095425;28;20172;-70
2023/07/27 03:06:01;;;;;;;17.02;11.10;;;;;;;-146.25;100.00;52185.72;2087425;28;20420;-69
2023/07/27 03:07:04;;;;;;;16.05;10.98;;;;;;;-146.25;100.00;52216.13;2080271;28;20034;-69
2023/07/27 03:08:05;;;;;;;17.77;10.75;;;;;;;-146.25;100.00;52199.91;2079256;28;20124;-70
2023/07/27 03:09:10;;;;;;;15.73;11.80;;;;;;;-146.25;100.00;52181.66;2087216;28;20053;-69
2023/07/27 03:10:12;;;;;;;17.75;11.93;;;;;;;-146.25;100.00;52238.44;2088521;28;31288;-70
2023/07/27 03:11:14;;;;;;;15.68;11.65;;;;;;;-146.25;100.00;52208.03;2096600;28;20052;-69
2023/07/27 03:12:16;;;;;;;18.27;12.75;;;;;;;-146.25;100.00;52222.22;2088853;28;20168;-69
2023/07/27 03:13:18;;;;;;;15.20;11.63;;;;;;;-146.25;100.00;52181.66;2089551;28;20090;-68
2023/07/27 03:14:19;;;;;;;17.27;12.15;;;;;;;-146.25;100.00;52157.34;2097374;28;20070;-69
2023/07/27 03:15:21;;;;;;;19.70;12.65;;;;;;;-146.25;100.00;52201.94;2088275;28;31480;-69
2023/07/27 03:16:23;;;;;;;17.13;12.80;;;;;;;-146.25;100.00;52246.53;2088884;28;20045;-69
2023/07/27 03:17:25;;;;;;;16.23;12.40;;;;;;;-146.25;100.00;52208.03;2080532;28;20128;-70
2023/07/27 03:18:30;;;;;;;16.17;12.65;;;;;;;-146.25;100.00;52228.28;2089249;28;20034;-70
2023/07/27 03:19:31;;;;;;;19.92;13.80;;;;;;;-146.25;100.00;52242.50;2088329;28;26477;-70
2023/07/27 03:20:43;;;;;;;17.58;12.02;;;;;;;-146.25;100.00;52222.22;2080598;28;20203;-70
2023/07/27 03:21:45;;;;;;;21.15;13.27;;;;;;;-146.25;100.00;52206.00;2081774;28;20050;-69
2023/07/27 03:22:48;;;;;;;18.60;13.40;;;;;;;-146.25;100.00;52212.06;2080639;28;20093;-69
2023/07/27 03:23:50;;;;;;;15.88;12.40;;;;;;;-146.25;100.00;52220.19;2088429;28;28733;-67
2023/07/27 03:24:55;;;;;;;17.42;12.15;;;;;;;-146.25;100.00;52181.66;2088806;28;20069;-70
2023/07/27 03:25:57;;;;;;;19.98;13.48;;;;;;;-146.25;100.00;52173.56;2088311;28;27494;-70
2023/07/27 03:26:59;;;;;;;18.85;13.80;;;;;;;-146.25;100.00;52212.06;2096834;28;20052;-70
2023/07/27 03:28:03;;;;;;;18.27;13.82;;;;;;;-146.25;100.00;52218.16;2088652;28;20084;-70
2023/07/27 03:29:04;;;;;;;20.45;14.52;;;;;;;-146.25;100.00;52193.81;2080455;28;30918;-70
2023/07/27 03:30:07;;;;;;;16.88;13.98;;;;;;;-146.25;100.00;52187.75;2088137;28;30121;-69
2023/07/27 03:31:28;;;;;;;17.05;13.30;;;;;;;-146.25;100.00;52210.03;2089278;28;31801;-69
2023/07/27 03:32:30;;;;;;;19.50;13.27;;;;;;;-146.25;100.00;52222.22;2096830;28;20131;-70
2023/07/27 03:33:32;;;;;;;19.30;13.90;;;;;;;-146.25;100.00;52175.56;2097116;28;20441;-69
2023/07/27 03:34:36;;;;;;;18.48;14.55;;;;;;;-146.25;100.00;52214.09;2097246;28;20044;-69
2023/07/27 03:35:38;;;;;;;17.83;13.15;;;;;;;-146.25;100.00;52197.88;2096914;28;20144;-71
2023/07/27 03:36:41;;;;;;;19.45;13.93;;;;;;;-146.25;100.00;52197.88;2089833;28;20041;-69
2023/07/27 03:37:46;;;;;;;19.08;14.27;;;;;;;-146.25;100.00;52208.03;2088893;28;33304;-70
2023/07/27 03:38:48;;;;;;;16.63;13.70;;;;;;;-146.25;100.00;52220.19;2088785;28;21037;-69
2023/07/27 03:39:49;;;;;;;17.92;12.82;;;;;;;-146.25;100.00;52195.84;2080386;28;26236;-69
2023/07/27 03:40:53;;;;;;;19.50;14.45;;;;;;;-146.25;100.00;52189.78;2089441;28;20159;-69
2023/07/27 03:41:55;;;;;;;19.48;13.65;;;;;;;-146.25;100.00;52212.06;2096573;28;20049;-69
2023/07/27 03:42:57;;;;;;;18.30;13.80;;;;;;;-146.25;100.00;52195.84;2088678;28;20127;-70
2023/07/27 03:43:59;;;;;;;18.85;13.52;;;;;;;-146.25;100.00;52181.66;2088729;28;20049;-69
2023/07/27 03:45:01;;;;;;;18.58;13.70;;;;;;;-146.25;100.00;52185.72;2088718;28;21005;-69
2023/07/27 03:46:03;;;;;;;19.88;14.13;;;;;;;-146.25;100.00;52201.94;2088892;28;20046;-69
2023/07/27 03:47:05;;;;;;;21.20;13.60;;;;;;;-146.25;100.00;52214.09;2088553;28;20933;-70
2023/07/27 03:48:09;;;;;;;19.38;14.18;;;;;;;-146.25;100.00;52228.28;2088563;28;27194;-70
2023/07/27 03:49:11;;;;;;;17.20;12.73;;;;;;;-146.25;100.00;52222.22;2096316;28;33325;-70
2023/07/27 03:50:13;;;;;;;16.95;12.85;;;;;;;-146.25;100.00;52203.97;2088745;28;20056;-69
2023/07/27 03:51:18;;;;;;;22.95;13.88;;;;;;;-146.25;100.00;52236.41;2088470;28;20041;-70
2023/07/27 03:52:20;;;;;;;17.20;13.00;;;;;;;-146.25;100.00;52203.97;2088437;28;20049;-69
2023/07/27 03:53:22;;;;;;;19.00;13.52;;;;;;;-146.25;100.00;52203.97;2088730;28;20080;-70
2023/07/27 03:54:24;;;;;;;17.73;12.73;;;;;;;-146.25;100.00;52222.22;2089449;28;20042;-68
2023/07/27 03:55:26;;;;;;;15.77;12.70;;;;;;;-146.25;100.00;52208.03;2088312;28;20135;-69
2023/07/27 03:56:28;;;;;;;21.77;14.43;;;;;;;-146.25;100.00;52272.91;2088384;28;20041;-68
2023/07/27 03:57:30;;;;;;;18.85;13.88;;;;;;;-146.25;100.00;52208.03;2088422;28;21008;-69
2023/07/27 03:58:32;;;;;;;15.93;12.60;;;;;;;-146.25;100.00;52189.78;2089226;28;20697;-69
2023/07/27 03:59:34;;;;;;;18.92;13.98;;;;;;;-146.25;100.00;52214.09;2088391;28;20113;-69
2023/07/27 04:00:39;;;;;;;16.60;12.95;;;;;;;-146.25;100.00;52206.00;2080135;28;20050;-71
2023/07/27 04:01:41;;;;;;;13.80;11.43;;;;;;;-146.25;100.00;52195.84;2072399;28;20089;-71
2023/07/27 04:02:43;;;;;;;17.00;12.48;;;;;;;-146.25;100.00;52201.94;2080871;28;20046;-71
2023/07/27 04:03:45;;;;;;;20.75;13.70;;;;;;;-146.25;100.00;52206.00;2096782;28;20033;-70
2023/07/27 04:04:47;;;;;;;19.10;13.20;;;;;;;-146.25;100.00;52169.50;2095998;28;24403;-69
2023/07/27 04:05:51;;;;;;;18.48;13.35;;;;;;;-146.25;100.00;52212.06;2089132;28;20041;-70
2023/07/27 04:06:53;;;;;;;22.45;14.15;;;;;;;-146.25;100.00;52199.91;2089252;28;20975;-70
2023/07/27 04:07:55;;;;;;;14.95;12.80;;;;;;;-146.25;100.00;52193.81;2087900;28;34643;-69
2023/07/27 04:08:57;;;;;;;19.38;13.07;;;;;;;-146.25;100.00;52218.16;2088430;28;20119;-69
2023/07/27 04:09:59;;;;;;;17.08;13.15;;;;;;;-146.25;100.00;52177.59;2088134;28;30779;-69
2023/07/27 04:11:00;;;;;;;19.00;12.43;;;;;;;-146.25;100.00;52195.84;2088289;28;21524;-68
2023/07/27 04:12:05;;;;;;;15.70;12.00;;;;;;;-146.25;100.00;52210.03;2088176;28;20883;-69
2023/07/27 04:13:07;;;;;;;16.58;13.15;;;;;;;-146.25;100.00;52201.94;2079795;28;36983;-70
2023/07/27 04:14:10;;;;;;;15.63;11.20;;;;;;;-146.25;100.00;52201.94;2080296;28;20042;-70
2023/07/27 04:15:13;;;;;;;14.52;12.25;;;;;;;-146.25;100.00;52193.81;2088038;28;29785;-69
2023/07/27 04:16:15;;;;;;;17.98;12.50;;;;;;;-146.25;100.00;52199.91;2088791;28;26712;-69
2023/07/27 04:17:19;;;;;;;16.95;13.00;;;;;;;-146.25;100.00;52216.13;2088956;28;20939;-69
2023/07/27 04:18:21;;;;;;;15.60;12.20;;;;;;;-146.25;100.00;52191.81;2096852;28;20195;-69
2023/07/27 04:19:23;;;;;;;17.45;12.88;;;;;;;-146.25;100.00;52222.22;2096611;28;21001;-68
2023/07/27 04:20:25;;;;;;;19.52;13.02;;;;;;;-146.25;100.00;52210.03;2096937;28;20045;-69
2023/07/27 04:21:27;;;;;;;19.02;12.65;;;;;;;-146.25;100.00;52216.13;2096921;28;20170;-71
2023/07/27 04:22:29;;;;;;;17.88;12.38;;;;;;;-146.25;100.00;52212.06;2088811;28;27994;-68
2023/07/27 04:23:33;;;;;;;19.00;12.68;;;;;;;-146.25;100.00;52199.91;2088604;28;20196;-69
2023/07/27 04:24:38;;;;;;;17.85;12.00;;;;;;;-146.25;100.00;52191.81;2080019;28;34832;-70
2023/07/27 04:25:40;;;;;;;16.67;12.32;;;;;;;-146.25;100.00;52234.38;2088464;28;20037;-70
2023/07/27 04:26:42;;;;;;;16.73;12.00;;;;;;;-146.25;100.00;52220.19;2096157;28;26275;-71
2023/07/27 04:27:44;;;;;;;16.88;12.57;;;;;;;-146.25;100.00;52187.75;2088108;28;20041;-68
2023/07/27 04:28:46;;;;;;;17.08;13.30;;;;;;;-146.25;100.00;52193.81;2087947;28;26686;-69
2023/07/27 04:29:47;;;;;;;16.67;12.90;;;;;;;-146.25;100.00;52175.56;2096707;28;20186;-69
2023/07/27 04:30:49;;;;;;;16.70;11.73;;;;;;;-146.25;100.00;52210.03;2096440;28;20194;-69
2023/07/27 04:31:51;;;;;;;17.73;13.25;;;;;;;-146.25;100.00;52242.50;2087585;28;28589;-69
2023/07/27 04:32:53;;;;;;;18.15;13.40;;;;;;;-146.25;100.00;52236.41;2087643;28;25806;-69
2023/07/27 04:33:55;;;;;;;16.75;12.52;;;;;;;-146.25;100.00;52187.75;2087430;28;26754;-68
2023/07/27 04:34:56;;;;;;;17.02;12.52;;;;;;;-146.25;100.00;52210.03;2088437;28;20037;-69
2023/07/27 04:36:00;;;;;;;17.38;12.57;;;;;;;-146.25;100.00;52191.81;2096261;28;25460;-68
2023/07/27 04:37:03;;;;;;;16.42;11.95;;;;;;;-146.25;100.00;52195.84;2088078;28;20829;-68
2023/07/27 04:38:05;;;;;;;16.77;12.18;;;;;;;-146.25;100.00;52250.59;2088270;28;20972;-68
2023/07/27 04:39:07;;;;;;;16.85;12.40;;;;;;;-146.25;100.00;52208.03;2095579;28;29658;-69
2023/07/27 04:40:10;;;;;;;15.43;11.55;;;;;;;-146.25;100.00;52220.19;2088603;28;20034;-68
2023/07/27 04:41:12;;;;;;;16.25;12.65;;;;;;;-146.25;100.00;52238.44;2088128;28;25966;-67
2023/07/27 04:42:15;;;;;;;15.30;11.60;;;;;;;-146.25;100.00;52187.75;2079277;28;35850;-68
2023/07/27 04:43:18;;;;;;;16.65;12.90;;;;;;;-146.25;100.00;52226.25;2081172;28;20042;-68
2023/07/27 04:44:20;;;;;;;16.95;12.38;;;;;;;-146.25;100.00;52201.94;2088733;28;25734;-69
2023/07/27 04:45:22;;;;;;;16.38;11.75;;;;;;;-146.25;100.00;52246.53;2088708;28;20045;-69
2023/07/27 04:46:24;;;;;;;15.38;11.93;;;;;;;-146.25;100.00;52216.13;2089117;28;20045;-68
2023/07/27 04:47:25;;;;;;;12.93;11.13;;;;;;;-146.25;100.00;52189.78;2088602;28;20044;-68
2023/07/27 04:48:27;;;;;;;15.10;10.82;;;;;;;-146.25;100.00;52189.78;2089261;28;20037;-68
2023/07/27 04:49:29;;;;;;;14.85;11.27;;;;;;;-146.25;100.00;52222.22;2088466;28;30378;-68